createdAt,value
2018-01-15T00:01:10.241Z,11.17
2018-01-15T00:03:37.929Z,10.87
2018-01-15T00:06:05.572Z,10.00
2018-01-15T00:08:33.160Z,14.67
2018-01-15T00:11:00.714Z,10.53
2018-01-15T00:13:28.577Z,11.17
2018-01-15T00:15:56.181Z,9.77
2018-01-15T00:18:23.799Z,8.10
2018-01-15T00:20:51.406Z,9.97
2018-01-15T00:23:19.071Z,11.63
2018-01-15T00:25:46.730Z,10.17
2018-01-15T00:28:14.351Z,9.53
2018-01-15T00:30:41.987Z,9.67
2018-01-15T00:33:10.507Z,10.53
2018-01-15T00:35:38.140Z,9.50
2018-01-15T00:38:05.959Z,10.30
2018-01-15T00:40:33.688Z,9.60
2018-01-15T00:43:01.331Z,8.57
2018-01-15T00:45:29.056Z,10.83
2018-01-15T00:47:56.730Z,10.40
2018-01-15T00:50:24.668Z,10.20
2018-01-15T00:52:52.545Z,11.50
2018-01-15T00:55:20.718Z,11.30
2018-01-15T00:57:48.405Z,10.30
2018-01-15T01:00:16.134Z,10.47
2018-01-15T01:02:43.701Z,10.00
2018-01-15T01:05:12.202Z,11.40
2018-01-15T01:07:39.775Z,13.53
2018-01-15T01:10:07.361Z,11.73
2018-01-15T01:12:34.992Z,10.00
2018-01-15T01:15:02.571Z,9.60
2018-01-15T01:17:30.143Z,11.00
2018-01-15T01:19:57.759Z,10.93
2018-01-15T01:22:25.352Z,12.23
2018-01-15T01:24:52.985Z,10.87
2018-01-15T01:27:20.770Z,11.07
2018-01-15T01:29:50.187Z,11.47
2018-01-15T01:32:17.775Z,11.37
2018-01-15T01:34:45.402Z,12.67
2018-01-15T01:37:14.029Z,10.30
2018-01-15T01:39:41.666Z,10.07
2018-01-15T01:42:09.275Z,10.90
2018-01-15T01:44:37.165Z,11.10
2018-01-15T01:47:04.978Z,10.53
2018-01-15T01:49:32.666Z,10.40
2018-01-15T01:52:00.255Z,11.23
2018-01-15T01:54:27.856Z,9.77
2018-01-15T01:56:55.430Z,10.23
2018-01-15T01:59:23.079Z,11.93
2018-01-15T02:01:50.845Z,11.70
2018-01-15T02:04:18.500Z,13.00
2018-01-15T02:06:46.331Z,10.80
2018-01-15T02:09:14.028Z,9.30
2018-01-15T02:11:42.163Z,10.67
2018-01-15T02:14:09.767Z,10.90
2018-01-15T02:16:37.508Z,12.87
2018-01-15T02:19:05.125Z,10.80
2018-01-15T02:21:32.748Z,11.03
2018-01-15T02:24:00.681Z,9.53
2018-01-15T02:26:28.250Z,10.73
2018-01-15T02:28:55.891Z,10.20
2018-01-15T02:31:23.970Z,10.67
2018-01-15T02:33:51.674Z,12.10
2018-01-15T02:36:19.260Z,11.90
2018-01-15T02:38:47.104Z,11.00
2018-01-15T02:41:14.733Z,10.93
2018-01-15T02:43:42.320Z,12.97
2018-01-15T02:46:10.204Z,14.00
2018-01-15T02:48:37.795Z,10.20
2018-01-15T02:51:05.512Z,11.90
2018-01-15T02:53:33.101Z,10.00
2018-01-15T02:56:00.738Z,11.23
2018-01-15T02:58:28.431Z,10.67
2018-01-15T03:00:56.208Z,11.43
2018-01-15T03:03:23.856Z,10.53
2018-01-15T03:05:51.456Z,10.60
2018-01-15T03:08:19.176Z,12.00
2018-01-15T03:10:46.981Z,11.50
2018-01-15T03:13:15.039Z,66.37
2018-01-15T03:15:43.034Z,15.20
2018-01-15T03:18:10.766Z,12.17
2018-01-15T03:20:38.478Z,11.27
2018-01-15T03:23:07.906Z,15.80
2018-01-15T03:25:37.163Z,16.50
2018-01-15T03:28:04.812Z,56.07
2018-01-15T03:30:32.471Z,51.73
2018-01-15T03:33:00.114Z,25.23
2018-01-15T03:35:28.242Z,12.90
2018-01-15T03:37:56.630Z,12.47
2018-01-15T03:40:24.303Z,14.37
2018-01-15T03:42:52.056Z,12.60
2018-01-15T03:45:20.025Z,11.80
2018-01-15T03:47:47.661Z,13.00
2018-01-15T03:50:15.658Z,12.43
2018-01-15T03:52:43.317Z,13.40
2018-01-15T03:55:12.283Z,12.80
2018-01-15T03:57:39.885Z,14.50
2018-01-15T04:00:07.499Z,13.93
2018-01-15T04:02:35.140Z,11.83
2018-01-15T04:05:02.763Z,10.57
2018-01-15T04:07:30.594Z,12.13
2018-01-15T04:09:58.305Z,13.07
2018-01-15T04:12:25.901Z,11.40
2018-01-15T04:14:53.860Z,11.30
2018-01-15T04:17:29.296Z,11.00
2018-01-15T04:19:57.825Z,11.33
2018-01-15T04:22:25.576Z,10.37
2018-01-15T04:24:53.254Z,13.20
2018-01-15T04:27:21.022Z,11.90
2018-01-15T04:29:48.636Z,13.47
2018-01-15T04:32:16.349Z,11.37
2018-01-15T04:34:44.016Z,13.30
2018-01-15T04:39:45.061Z,12.60
2018-01-15T04:42:12.631Z,12.70
2018-01-15T04:44:40.221Z,13.30
2018-01-15T04:47:08.467Z,16.67
2018-01-15T04:49:36.148Z,17.07
2018-01-15T04:52:03.726Z,16.33
2018-01-15T04:54:31.583Z,18.87
2018-01-15T04:56:59.258Z,13.17
2018-01-15T04:59:26.875Z,12.07
2018-01-15T05:01:54.817Z,16.13
2018-01-15T05:04:23.292Z,18.50
2018-01-15T05:06:50.912Z,19.10
2018-01-15T05:09:18.522Z,19.13
2018-01-15T05:11:46.227Z,17.87
2018-01-15T05:14:14.024Z,17.57
2018-01-15T05:16:41.638Z,13.90
2018-01-15T05:19:10.173Z,11.27
2018-01-15T05:21:37.771Z,10.97
2018-01-15T05:24:05.481Z,11.47
2018-01-15T05:26:33.230Z,15.90
2018-01-15T05:29:01.613Z,18.33
2018-01-15T05:31:29.538Z,17.20
2018-01-15T05:33:57.133Z,17.00
2018-01-15T05:36:25.360Z,15.33
2018-01-15T05:38:53.295Z,15.60
2018-01-15T05:41:20.881Z,12.30
2018-01-15T05:43:48.664Z,12.20
2018-01-15T05:46:16.606Z,11.57
2018-01-15T05:48:44.240Z,12.00
2018-01-15T05:51:12.061Z,12.07
2018-01-15T05:53:39.672Z,11.33
2018-01-15T05:56:07.277Z,11.60
2018-01-15T05:58:35.130Z,12.03
2018-01-15T06:01:02.739Z,11.40
2018-01-15T06:03:30.323Z,13.20
2018-01-15T06:05:57.928Z,14.43
2018-01-15T06:08:25.534Z,13.53
2018-01-15T06:10:53.159Z,14.90
2018-01-15T06:13:20.804Z,13.67
2018-01-15T06:15:48.388Z,12.80
2018-01-15T06:18:16.041Z,14.67
2018-01-15T06:20:43.676Z,12.10
2018-01-15T06:23:12.185Z,13.27
2018-01-15T06:25:39.961Z,11.30
2018-01-15T06:28:07.538Z,12.13
2018-01-15T06:30:35.136Z,13.73
2018-01-15T06:33:02.871Z,12.03
2018-01-15T06:35:30.445Z,10.57
2018-01-15T06:37:58.045Z,11.47
2018-01-15T06:40:25.688Z,11.60
2018-01-15T06:42:53.289Z,12.90
2018-01-15T06:45:21.033Z,11.50
2018-01-15T06:47:48.690Z,15.50
2018-01-15T06:50:16.290Z,13.80
2018-01-15T06:52:43.905Z,13.13
2018-01-15T06:55:11.748Z,14.80
2018-01-15T06:57:39.359Z,13.70
2018-01-15T07:00:07.183Z,16.50
2018-01-15T07:02:34.868Z,17.70
2018-01-15T07:05:02.532Z,16.87
2018-01-15T07:07:31.115Z,15.47
2018-01-15T07:09:58.932Z,18.37
2018-01-15T07:12:26.533Z,17.57
2018-01-15T07:14:54.639Z,15.87
2018-01-15T07:17:23.230Z,17.13
2018-01-15T07:19:51.433Z,18.67
2018-01-15T07:22:19.840Z,17.80
2018-01-15T07:24:47.520Z,22.70
2018-01-15T07:27:15.117Z,23.97
2018-01-15T07:29:42.740Z,54.53
2018-01-15T07:32:10.318Z,45.63
2018-01-15T07:34:37.932Z,40.40
2018-01-15T07:37:05.750Z,33.97
2018-01-15T07:39:33.426Z,30.50
2018-01-15T07:42:01.098Z,32.63
2018-01-15T07:44:28.710Z,25.70
2018-01-15T07:46:56.321Z,28.03
2018-01-15T07:49:24.192Z,28.67
2018-01-15T07:51:51.790Z,27.90
2018-01-15T07:54:19.495Z,28.30
2018-01-15T07:56:47.064Z,27.67
2018-01-15T07:59:14.699Z,26.67
2018-01-15T08:01:42.513Z,27.67
2018-01-15T08:04:10.121Z,31.77
2018-01-15T08:06:37.715Z,27.30
2018-01-15T08:09:06.807Z,20.67
2018-01-15T08:11:34.704Z,13.87
2018-01-15T08:14:02.286Z,13.37
2018-01-15T08:16:29.901Z,13.53
2018-01-15T08:18:57.479Z,12.37
2018-01-15T08:21:25.303Z,14.90
2018-01-15T08:23:52.943Z,14.53
2018-01-15T08:26:20.608Z,14.20
2018-01-15T08:28:48.234Z,14.33
2018-01-15T08:31:15.846Z,13.10
2018-01-15T08:33:43.791Z,15.60
2018-01-15T08:36:11.719Z,14.77
2018-01-15T08:38:39.337Z,18.00
2018-01-15T08:41:07.139Z,15.10
2018-01-15T08:43:35.383Z,16.53
2018-01-15T08:46:02.982Z,16.70
2018-01-15T08:48:30.554Z,18.70
2018-01-15T08:50:58.543Z,23.57
2018-01-15T08:53:26.224Z,21.30
2018-01-15T08:55:53.789Z,13.70
2018-01-15T08:58:21.799Z,13.97
2018-01-15T09:00:49.841Z,19.17
2018-01-15T09:03:17.668Z,21.13
2018-01-15T09:05:45.265Z,21.10
2018-01-15T09:08:12.821Z,15.50
2018-01-15T09:10:40.430Z,15.73
2018-01-15T09:13:08.362Z,12.73
2018-01-15T09:15:35.952Z,13.73
2018-01-15T09:18:03.844Z,12.90
2018-01-15T09:20:31.827Z,13.60
2018-01-15T09:22:59.428Z,13.60
2018-01-15T09:25:27.773Z,40.40
2018-01-15T09:27:55.454Z,15.77
2018-01-15T09:30:23.050Z,16.00
2018-01-15T09:32:50.636Z,15.73
2018-01-15T09:35:18.243Z,16.40
2018-01-15T09:37:45.830Z,17.23
2018-01-15T09:40:14.002Z,13.00
2018-01-15T09:42:41.558Z,14.07
2018-01-15T09:45:09.883Z,13.80
2018-01-15T09:47:37.549Z,12.23
2018-01-15T09:50:05.153Z,13.47
2018-01-15T09:52:32.812Z,11.43
2018-01-15T09:55:00.453Z,13.23
2018-01-15T09:57:28.182Z,11.57
2018-01-15T09:59:55.810Z,15.83
2018-01-15T10:02:23.813Z,13.70
2018-01-15T10:04:51.457Z,14.60
2018-01-15T10:07:19.417Z,14.00
2018-01-15T10:09:47.100Z,12.27
2018-01-15T10:12:14.738Z,15.00
2018-01-15T10:14:42.342Z,14.03
2018-01-15T10:17:10.860Z,16.83
2018-01-15T10:19:38.517Z,14.23
2018-01-15T10:22:06.090Z,13.20
2018-01-15T10:24:33.668Z,12.30
2018-01-15T10:27:01.282Z,11.60
2018-01-15T10:29:30.108Z,12.67
2018-01-15T10:31:57.722Z,16.30
2018-01-15T10:34:25.325Z,11.43
2018-01-15T10:36:52.897Z,11.40
2018-01-15T10:39:20.463Z,9.87
2018-01-15T10:41:48.088Z,11.00
2018-01-15T10:47:05.970Z,15.40
2018-01-15T10:49:33.545Z,17.13
2018-01-15T10:52:02.204Z,13.17
2018-01-15T10:54:30.704Z,14.13
2018-01-15T10:56:58.328Z,15.20
2018-01-15T10:59:25.914Z,21.53
2018-01-15T11:01:53.993Z,14.00
2018-01-15T11:04:21.709Z,9.70
2018-01-15T11:06:51.100Z,9.83
2018-01-15T11:09:19.189Z,11.03
2018-01-15T11:11:46.770Z,13.03
2018-01-15T11:14:18.004Z,14.30
2018-01-15T11:16:45.672Z,21.63
2018-01-15T11:19:13.320Z,17.23
2018-01-15T11:21:40.918Z,11.33
2018-01-15T11:24:10.492Z,10.83
2018-01-15T11:26:38.266Z,12.40
2018-01-15T11:29:06.555Z,13.13
2018-01-15T11:31:34.318Z,12.30
2018-01-15T11:34:02.078Z,11.83
2018-01-15T11:36:29.732Z,12.50
2018-01-15T11:38:57.303Z,9.13
2018-01-15T11:41:24.844Z,11.20
2018-01-15T11:43:53.428Z,10.83
2018-01-15T11:46:21.138Z,10.83
2018-01-15T11:48:48.689Z,11.90
2018-01-15T11:51:16.817Z,12.43
2018-01-15T11:53:44.421Z,10.73
2018-01-15T11:56:12.003Z,10.17
2018-01-15T11:58:39.597Z,12.17
2018-01-15T12:01:08.741Z,11.40
2018-01-15T12:03:36.318Z,8.50
2018-01-15T12:06:03.884Z,11.00
2018-01-15T12:08:31.484Z,10.10
2018-01-15T12:10:59.077Z,9.97
2018-01-15T12:13:26.790Z,11.20
2018-01-15T12:15:54.343Z,9.30
2018-01-15T12:18:22.081Z,9.73
2018-01-15T12:20:49.632Z,10.27
2018-01-15T12:23:17.306Z,12.70
2018-01-15T12:25:44.956Z,12.53
2018-01-15T12:28:12.697Z,11.47
2018-01-15T12:30:40.292Z,12.40
2018-01-15T12:33:08.293Z,10.50
2018-01-15T12:35:37.045Z,8.57
2018-01-15T12:38:04.619Z,9.30
2018-01-15T12:40:32.208Z,15.00
2018-01-15T12:42:59.789Z,13.60
2018-01-15T12:45:27.530Z,20.07
2018-01-15T12:47:55.107Z,13.93
2018-01-15T12:50:22.715Z,12.70
2018-01-15T12:52:50.315Z,16.50
2018-01-15T12:55:17.896Z,13.60
2018-01-15T12:57:45.464Z,11.33
2018-01-15T13:00:13.002Z,19.23
2018-01-15T13:02:40.602Z,12.60
2018-01-15T13:05:08.491Z,11.63
2018-01-15T13:07:47.762Z,21.60
2018-01-15T13:10:15.329Z,13.50
2018-01-15T13:12:42.991Z,15.40
2018-01-15T13:15:11.264Z,13.57
2018-01-15T13:17:39.802Z,10.60
2018-01-15T13:20:07.387Z,15.00
2018-01-15T13:22:34.974Z,13.53
2018-01-15T13:25:02.533Z,15.23
2018-01-15T13:27:31.275Z,12.20
2018-01-15T13:29:58.856Z,10.63
2018-01-15T13:32:26.460Z,14.10
2018-01-15T13:34:54.045Z,12.70
2018-01-15T13:37:21.622Z,11.50
2018-01-15T13:39:49.214Z,11.67
2018-01-15T13:42:16.821Z,10.87
2018-01-15T13:44:44.420Z,10.33
2018-01-15T13:47:12.486Z,12.63
2018-01-15T13:49:40.131Z,11.30
2018-01-15T13:52:07.771Z,9.80
2018-01-15T13:54:35.384Z,10.43
2018-01-15T13:57:03.029Z,11.30
2018-01-15T13:59:30.585Z,12.17
2018-01-15T14:01:58.140Z,14.23
2018-01-15T14:04:25.771Z,12.30
2018-01-15T14:06:53.357Z,10.53
2018-01-15T14:09:21.013Z,13.83
2018-01-15T14:11:48.627Z,12.07
2018-01-15T14:14:16.199Z,10.60
2018-01-15T14:16:43.776Z,17.13
2018-01-15T14:19:11.993Z,18.53
2018-01-15T14:21:39.570Z,20.73
2018-01-15T14:24:07.228Z,17.77
2018-01-15T14:26:34.841Z,21.27
2018-01-15T14:29:02.486Z,18.30
2018-01-15T14:31:30.039Z,19.17
2018-01-15T14:33:58.103Z,25.20
2018-01-15T14:36:25.697Z,21.13
2018-01-15T14:38:53.405Z,18.07
2018-01-15T14:41:20.951Z,18.17
2018-01-15T14:43:48.535Z,15.07
2018-01-15T14:46:16.162Z,12.90
2018-01-15T14:48:43.794Z,18.53
2018-01-15T14:51:11.475Z,14.37
2018-01-15T14:53:39.441Z,13.60
2018-01-15T14:56:07.037Z,14.17
2018-01-15T14:58:34.620Z,12.73
2018-01-15T15:01:02.274Z,10.73
2018-01-15T15:03:29.893Z,13.77
2018-01-15T15:06:00.278Z,15.47
2018-01-15T15:11:02.111Z,18.50
2018-01-15T15:13:29.736Z,16.40
2018-01-15T15:15:57.416Z,15.73
2018-01-15T15:18:25.319Z,14.10
2018-01-15T15:20:52.944Z,14.20
2018-01-15T15:23:20.565Z,13.80
2018-01-15T15:25:48.262Z,14.40
2018-01-15T15:28:21.278Z,16.87
2018-01-15T15:30:49.203Z,15.73
2018-01-15T15:33:17.355Z,14.03
2018-01-15T15:35:45.050Z,12.37
2018-01-15T15:38:13.174Z,14.50
2018-01-15T15:40:40.821Z,14.40
2018-01-15T15:43:10.779Z,14.50
2018-01-15T15:45:38.473Z,14.50
2018-01-15T15:48:09.060Z,16.60
2018-01-15T15:50:36.839Z,18.87
2018-01-15T15:53:06.510Z,16.50
2018-01-15T15:55:34.476Z,25.57
2018-01-15T15:58:02.770Z,39.63
2018-01-15T16:00:30.479Z,22.93
2018-01-15T16:02:58.208Z,22.10
2018-01-15T16:05:25.953Z,24.43
2018-01-15T16:07:53.601Z,26.63
2018-01-15T16:10:21.360Z,16.20
2018-01-15T16:12:48.961Z,17.10
2018-01-15T16:15:16.585Z,15.23
2018-01-15T16:17:44.230Z,12.20
2018-01-15T16:20:11.922Z,14.30
2018-01-15T16:22:51.690Z,14.13
2018-01-15T16:25:19.328Z,14.50
2018-01-15T16:27:46.970Z,22.80
2018-01-15T16:30:14.592Z,43.03
2018-01-15T16:32:49.867Z,39.60
2018-01-15T16:35:17.659Z,35.50
2018-01-15T16:37:45.253Z,37.07
2018-01-15T16:40:12.956Z,27.40
2018-01-15T16:42:40.581Z,27.77
2018-01-15T16:45:08.592Z,21.67
2018-01-15T16:47:36.202Z,16.53
2018-01-15T16:50:09.414Z,15.27
2018-01-15T16:52:37.098Z,10.87
2018-01-15T16:57:55.054Z,19.93
2018-01-15T17:00:22.646Z,18.00
2018-01-15T17:02:50.302Z,16.53
2018-01-15T17:05:18.309Z,22.90
2018-01-15T17:07:45.868Z,23.93
2018-01-15T17:10:14.051Z,32.03
2018-01-15T17:12:41.665Z,29.50
2018-01-15T17:15:09.973Z,31.70
2018-01-15T17:17:38.060Z,21.67
2018-01-15T17:20:05.766Z,17.63
2018-01-15T17:22:33.363Z,22.10
2018-01-15T17:25:00.971Z,17.57
2018-01-15T17:27:28.599Z,15.20
2018-01-15T17:29:56.214Z,14.70
2018-01-15T17:32:24.502Z,14.63
2018-01-15T17:34:52.105Z,14.93
2018-01-15T17:37:19.708Z,15.10
2018-01-15T17:39:47.314Z,20.33
2018-01-15T17:42:14.921Z,17.40
2018-01-15T17:44:42.510Z,16.17
2018-01-15T17:47:10.885Z,13.70
2018-01-15T17:49:38.491Z,12.00
2018-01-15T17:52:06.127Z,14.30
2018-01-15T17:54:33.719Z,20.27
2018-01-15T17:57:01.667Z,15.97
2018-01-15T17:59:29.286Z,13.43
2018-01-15T18:01:56.867Z,12.60
2018-01-15T18:04:25.038Z,12.80
2018-01-15T18:06:52.895Z,12.70
2018-01-15T18:09:20.750Z,13.37
2018-01-15T18:11:48.302Z,14.90
2018-01-15T18:14:16.225Z,15.50
2018-01-15T18:16:43.828Z,15.37
2018-01-15T18:19:11.929Z,15.40
2018-01-15T18:21:39.821Z,13.73
2018-01-15T18:24:07.489Z,13.93
2018-01-15T18:26:35.095Z,13.60
2018-01-15T18:29:02.658Z,12.70
2018-01-15T18:31:30.245Z,13.60
2018-01-15T18:33:57.821Z,12.50
2018-01-15T18:36:26.003Z,16.60
2018-01-15T18:38:53.582Z,18.97
2018-01-15T18:41:21.192Z,22.63
2018-01-15T18:43:48.785Z,20.87
2018-01-15T18:46:16.430Z,22.00
2018-01-15T18:48:44.088Z,19.50
2018-01-15T18:51:12.027Z,26.40
2018-01-15T18:53:39.626Z,22.03
2018-01-15T18:56:07.218Z,19.30
2018-01-15T18:58:34.800Z,19.97
2018-01-15T19:01:02.409Z,20.70
2018-01-15T19:03:30.113Z,19.33
2018-01-15T19:05:58.547Z,19.13
2018-01-15T19:08:26.221Z,18.73
2018-01-15T19:10:54.555Z,20.40
2018-01-15T19:13:22.157Z,19.20
2018-01-15T19:15:49.824Z,18.17
2018-01-15T19:18:17.509Z,17.17
2018-01-15T19:20:45.101Z,19.77
2018-01-15T19:23:12.700Z,18.83
2018-01-15T19:25:40.356Z,18.40
2018-01-15T19:28:07.993Z,15.37
2018-01-15T19:30:38.411Z,17.50
2018-01-15T19:33:06.116Z,17.80
2018-01-15T19:38:36.987Z,21.50
2018-01-15T19:41:04.628Z,25.70
2018-01-15T19:43:36.732Z,24.73
2018-01-15T19:46:09.987Z,17.17
2018-01-15T19:48:45.633Z,16.67
2018-01-15T19:51:18.836Z,15.53
2018-01-15T19:53:51.940Z,18.10
2018-01-15T19:59:15.417Z,18.23
2018-01-15T20:01:48.522Z,20.53
2018-01-15T20:04:21.577Z,20.00
2018-01-15T20:06:54.717Z,19.63
2018-01-15T20:09:28.512Z,21.97
2018-01-15T20:11:56.177Z,24.50
2018-01-15T20:14:24.715Z,23.23
2018-01-15T20:16:52.713Z,23.67
2018-01-15T20:19:20.579Z,22.13
2018-01-15T20:21:48.377Z,20.30
2018-01-15T20:24:15.979Z,18.60
2018-01-15T20:26:43.714Z,20.97
2018-01-15T20:29:11.318Z,17.60
2018-01-15T20:31:38.928Z,17.17
2018-01-15T20:34:06.587Z,19.47
2018-01-15T20:36:34.154Z,18.17
2018-01-15T20:39:01.741Z,26.27
2018-01-15T20:41:29.344Z,28.67
2018-01-15T20:43:56.932Z,16.73
2018-01-15T20:46:24.507Z,17.10
2018-01-15T20:48:52.144Z,14.80
2018-01-15T20:51:19.770Z,17.63
2018-01-15T20:53:47.373Z,21.80
2018-01-15T20:56:14.990Z,25.93
2018-01-15T20:58:42.605Z,25.37
2018-01-15T21:01:10.225Z,33.20
2018-01-15T21:03:37.847Z,20.57
2018-01-15T21:06:05.575Z,32.13
2018-01-15T21:08:33.166Z,23.93
2018-01-15T21:11:00.787Z,21.57
2018-01-15T21:13:29.843Z,19.57
2018-01-15T21:15:57.443Z,23.83
2018-01-15T21:18:25.065Z,20.20
2018-01-15T21:20:52.699Z,31.77
2018-01-15T21:23:20.528Z,25.87
2018-01-15T21:25:48.376Z,22.70
2018-01-15T21:28:16.580Z,19.70
2018-01-15T21:30:44.376Z,18.70
2018-01-15T21:33:12.132Z,18.90
2018-01-15T21:35:39.745Z,17.50
2018-01-15T21:38:08.510Z,15.60
2018-01-15T21:40:36.545Z,12.60
2018-01-15T21:43:04.130Z,14.03
2018-01-15T21:45:32.413Z,13.33
2018-01-15T21:48:00.068Z,13.80
2018-01-15T21:50:28.173Z,13.80
2018-01-15T21:52:55.879Z,23.70
2018-01-15T21:55:23.822Z,20.17
2018-01-15T21:57:51.427Z,21.50
2018-01-15T22:00:19.134Z,17.30
2018-01-15T22:02:47.121Z,15.93
2018-01-15T22:05:14.707Z,16.10
2018-01-15T22:07:42.303Z,13.13
2018-01-15T22:12:59.930Z,33.00
2018-01-15T22:15:27.492Z,18.50
2018-01-15T22:17:55.054Z,17.57
2018-01-15T22:20:22.633Z,28.53
2018-01-15T22:22:50.216Z,18.50
2018-01-15T22:25:17.837Z,17.47
2018-01-15T22:27:45.404Z,23.30
2018-01-15T22:30:13.069Z,20.93
2018-01-15T22:32:40.683Z,20.40
2018-01-15T22:35:08.788Z,16.67
2018-01-15T22:37:36.481Z,17.10
2018-01-15T22:40:04.124Z,18.93
2018-01-15T22:42:31.978Z,21.67
2018-01-15T22:44:59.616Z,20.93
2018-01-15T22:47:27.475Z,19.67
2018-01-15T22:49:55.108Z,16.27
2018-01-15T22:52:22.721Z,15.83
2018-01-15T22:54:50.286Z,17.83
2018-01-15T22:57:17.888Z,13.47
2018-01-15T22:59:45.481Z,12.27
2018-01-15T23:02:13.365Z,14.67
2018-01-15T23:04:40.955Z,21.07
2018-01-15T23:07:09.722Z,20.73
2018-01-15T23:09:37.426Z,15.57
2018-01-15T23:12:05.129Z,16.13
2018-01-15T23:14:32.720Z,20.47
2018-01-15T23:17:00.385Z,20.57
2018-01-15T23:19:27.979Z,18.60
2018-01-15T23:21:55.586Z,20.67
2018-01-15T23:24:23.176Z,20.10
2018-01-15T23:26:50.853Z,17.03
2018-01-15T23:29:20.578Z,17.70
2018-01-15T23:31:48.216Z,16.20
2018-01-15T23:34:15.836Z,16.27
2018-01-15T23:36:45.664Z,16.67
2018-01-15T23:39:17.444Z,15.80
2018-01-15T23:41:45.228Z,14.70
2018-01-15T23:44:15.244Z,14.10
2018-01-15T23:46:42.928Z,13.70
2018-01-15T23:49:12.256Z,16.70
2018-01-15T23:51:40.761Z,13.50
2018-01-15T23:54:08.402Z,12.23
2018-01-15T23:56:36.224Z,17.00
2018-01-15T23:59:04.621Z,15.67
